sensor_id;sensor_type;location;lat;lon;timestamp;P1;durP1;ratioP1;P2;durP2;ratioP2
51260;SDS011;61705;46.228;24.812;2022-09-27T00:01:15;13.27;;;7.20;;
51260;SDS011;61705;46.228;24.812;2022-09-27T00:03:42;16.13;;;7.07;;
51260;SDS011;61705;46.228;24.812;2022-09-27T00:06:15;10.55;;;6.00;;
51260;SDS011;61705;46.228;24.812;2022-09-27T00:08:47;9.63;;;5.80;;
51260;SDS011;61705;46.228;24.812;2022-09-27T00:11:24;12.52;;;5.90;;
51260;SDS011;61705;46.228;24.812;2022-09-27T00:13:52;9.93;;;5.50;;
51260;SDS011;61705;46.228;24.812;2022-09-27T00:16:21;13.40;;;6.35;;
51260;SDS011;61705;46.228;24.812;2022-09-27T00:18:49;9.18;;;5.97;;
51260;SDS011;61705;46.228;24.812;2022-09-27T00:21:16;13.85;;;6.07;;
51260;SDS011;61705;46.228;24.812;2022-09-27T00:23:44;10.93;;;6.53;;
51260;SDS011;61705;46.228;24.812;2022-09-27T00:26:11;15.00;;;7.35;;
51260;SDS011;61705;46.228;24.812;2022-09-27T00:28:42;13.13;;;7.00;;
51260;SDS011;61705;46.228;24.812;2022-09-27T00:31:22;10.55;;;5.85;;
51260;SDS011;61705;46.228;24.812;2022-09-27T00:34:00;11.82;;;6.20;;
51260;SDS011;61705;46.228;24.812;2022-09-27T00:36:32;10.77;;;6.13;;
51260;SDS011;61705;46.228;24.812;2022-09-27T00:38:59;12.68;;;6.05;;
51260;SDS011;61705;46.228;24.812;2022-09-27T00:41:31;10.88;;;6.10;;
51260;SDS011;61705;46.228;24.812;2022-09-27T00:47:18;16.20;;;6.70;;
51260;SDS011;61705;46.228;24.812;2022-09-27T00:55:44;17.73;;;6.97;;
51260;SDS011;61705;46.228;24.812;2022-09-27T00:58:17;9.43;;;5.68;;
51260;SDS011;61705;46.228;24.812;2022-09-27T01:00:50;10.50;;;5.35;;
51260;SDS011;61705;46.228;24.812;2022-09-27T01:03:27;9.35;;;5.18;;
51260;SDS011;61705;46.228;24.812;2022-09-27T01:06:01;12.48;;;5.45;;
51260;SDS011;61705;46.228;24.812;2022-09-27T01:08:35;10.85;;;5.55;;
51260;SDS011;61705;46.228;24.812;2022-09-27T01:28:34;10.15;;;5.07;;
51260;SDS011;61705;46.228;24.812;2022-09-27T01:34:00;9.15;;;4.47;;
51260;SDS011;61705;46.228;24.812;2022-09-27T01:36:37;9.45;;;5.22;;
51260;SDS011;61705;46.228;24.812;2022-09-27T01:45:03;9.32;;;5.00;;
51260;SDS011;61705;46.228;24.812;2022-09-27T01:48:15;9.55;;;5.03;;
51260;SDS011;61705;46.228;24.812;2022-09-27T01:50:37;10.77;;;5.82;;
51260;SDS011;61705;46.228;24.812;2022-09-27T01:53:11;9.25;;;5.13;;
51260;SDS011;61705;46.228;24.812;2022-09-27T01:55:44;11.55;;;5.13;;
51260;SDS011;61705;46.228;24.812;2022-09-27T01:58:25;9.80;;;5.65;;
51260;SDS011;61705;46.228;24.812;2022-09-27T02:00:57;14.15;;;6.32;;
51260;SDS011;61705;46.228;24.812;2022-09-27T02:03:27;12.23;;;6.03;;
51260;SDS011;61705;46.228;24.812;2022-09-27T02:06:13;14.40;;;6.25;;
51260;SDS011;61705;46.228;24.812;2022-09-27T02:08:52;12.65;;;6.47;;
51260;SDS011;61705;46.228;24.812;2022-09-27T02:11:20;15.68;;;9.77;;
51260;SDS011;61705;46.228;24.812;2022-09-27T02:14:01;15.82;;;9.05;;
51260;SDS011;61705;46.228;24.812;2022-09-27T02:16:35;15.82;;;9.05;;
51260;SDS011;61705;46.228;24.812;2022-09-27T02:22:22;10.55;;;6.63;;
51260;SDS011;61705;46.228;24.812;2022-09-27T02:24:59;13.30;;;6.78;;
51260;SDS011;61705;46.228;24.812;2022-09-27T02:27:54;11.32;;;5.25;;
51260;SDS011;61705;46.228;24.812;2022-09-27T02:30:27;11.90;;;4.85;;
51260;SDS011;61705;46.228;24.812;2022-09-27T02:32:55;10.43;;;5.75;;
51260;SDS011;61705;46.228;24.812;2022-09-27T02:35:23;13.70;;;8.25;;
51260;SDS011;61705;46.228;24.812;2022-09-27T02:37:57;22.48;;;12.75;;
51260;SDS011;61705;46.228;24.812;2022-09-27T02:40:32;23.77;;;13.73;;
51260;SDS011;61705;46.228;24.812;2022-09-27T02:43:03;13.55;;;6.80;;
51260;SDS011;61705;46.228;24.812;2022-09-27T02:45:35;9.48;;;6.07;;
51260;SDS011;61705;46.228;24.812;2022-09-27T02:48:25;14.98;;;7.15;;
51260;SDS011;61705;46.228;24.812;2022-09-27T03:05:25;36.83;;;7.63;;
51260;SDS011;61705;46.228;24.812;2022-09-27T03:07:58;10.05;;;5.28;;
51260;SDS011;61705;46.228;24.812;2022-09-27T03:10:28;12.27;;;5.63;;
51260;SDS011;61705;46.228;24.812;2022-09-27T03:13:00;14.38;;;5.85;;
51260;SDS011;61705;46.228;24.812;2022-09-27T03:15:27;12.55;;;5.60;;
51260;SDS011;61705;46.228;24.812;2022-09-27T03:17:57;17.33;;;9.68;;
51260;SDS011;61705;46.228;24.812;2022-09-27T03:20:24;13.73;;;5.80;;
51260;SDS011;61705;46.228;24.812;2022-09-27T03:22:53;9.48;;;5.22;;
51260;SDS011;61705;46.228;24.812;2022-09-27T03:25:21;29.25;;;8.35;;
51260;SDS011;61705;46.228;24.812;2022-09-27T03:27:48;14.05;;;6.63;;
51260;SDS011;61705;46.228;24.812;2022-09-27T03:30:15;25.77;;;11.68;;
51260;SDS011;61705;46.228;24.812;2022-09-27T03:32:42;14.40;;;5.70;;
51260;SDS011;61705;46.228;24.812;2022-09-27T03:35:10;14.10;;;5.80;;
51260;SDS011;61705;46.228;24.812;2022-09-27T03:37:38;12.10;;;6.68;;
51260;SDS011;61705;46.228;24.812;2022-09-27T03:40:06;14.68;;;7.28;;
51260;SDS011;61705;46.228;24.812;2022-09-27T03:42:34;14.57;;;6.32;;
51260;SDS011;61705;46.228;24.812;2022-09-27T03:45:03;15.35;;;5.43;;
51260;SDS011;61705;46.228;24.812;2022-09-27T03:47:32;15.82;;;6.47;;
51260;SDS011;61705;46.228;24.812;2022-09-27T03:50:00;13.25;;;5.90;;
51260;SDS011;61705;46.228;24.812;2022-09-27T03:52:29;13.30;;;5.85;;
51260;SDS011;61705;46.228;24.812;2022-09-27T03:54:56;12.27;;;5.60;;
51260;SDS011;61705;46.228;24.812;2022-09-27T03:57:28;12.68;;;6.63;;
51260;SDS011;61705;46.228;24.812;2022-09-27T03:59:57;15.65;;;7.15;;
51260;SDS011;61705;46.228;24.812;2022-09-27T04:02:28;18.60;;;7.45;;
51260;SDS011;61705;46.228;24.812;2022-09-27T04:04:54;18.67;;;7.40;;
51260;SDS011;61705;46.228;24.812;2022-09-27T04:07:28;18.00;;;7.72;;
51260;SDS011;61705;46.228;24.812;2022-09-27T04:09:59;17.77;;;7.25;;
51260;SDS011;61705;46.228;24.812;2022-09-27T04:12:33;26.73;;;9.32;;
51260;SDS011;61705;46.228;24.812;2022-09-27T04:17:34;22.45;;;7.78;;
51260;SDS011;61705;46.228;24.812;2022-09-27T04:20:03;30.67;;;9.27;;
51260;SDS011;61705;46.228;24.812;2022-09-27T04:22:46;30.75;;;10.93;;
51260;SDS011;61705;46.228;24.812;2022-09-27T04:25:30;31.30;;;12.93;;
51260;SDS011;61705;46.228;24.812;2022-09-27T04:28:24;47.90;;;9.90;;
51260;SDS011;61705;46.228;24.812;2022-09-27T04:31:17;54.15;;;10.70;;
51260;SDS011;61705;46.228;24.812;2022-09-27T04:34:10;31.85;;;10.80;;
51260;SDS011;61705;46.228;24.812;2022-09-27T04:36:43;66.18;;;11.60;;
51260;SDS011;61705;46.228;24.812;2022-09-27T04:39:18;50.92;;;12.35;;
51260;SDS011;61705;46.228;24.812;2022-09-27T04:41:47;45.95;;;9.43;;
51260;SDS011;61705;46.228;24.812;2022-09-27T04:44:17;38.90;;;9.85;;
51260;SDS011;61705;46.228;24.812;2022-09-27T04:46:44;27.35;;;9.05;;
51260;SDS011;61705;46.228;24.812;2022-09-27T04:49:17;26.95;;;10.00;;
51260;SDS011;61705;46.228;24.812;2022-09-27T04:51:45;15.93;;;8.00;;
51260;SDS011;61705;46.228;24.812;2022-09-27T04:54:19;21.25;;;9.43;;
51260;SDS011;61705;46.228;24.812;2022-09-27T04:56:50;40.15;;;17.63;;
51260;SDS011;61705;46.228;24.812;2022-09-27T04:59:23;26.58;;;12.95;;
51260;SDS011;61705;46.228;24.812;2022-09-27T05:01:59;24.27;;;10.43;;
51260;SDS011;61705;46.228;24.812;2022-09-27T05:04:43;22.10;;;10.15;;
51260;SDS011;61705;46.228;24.812;2022-09-27T05:07:16;17.80;;;7.82;;
51260;SDS011;61705;46.228;24.812;2022-09-27T05:09:59;20.70;;;8.38;;
51260;SDS011;61705;46.228;24.812;2022-09-27T05:12:52;35.47;;;11.15;;
51260;SDS011;61705;46.228;24.812;2022-09-27T05:15:22;20.73;;;8.93;;
51260;SDS011;61705;46.228;24.812;2022-09-27T05:17:50;17.92;;;7.28;;
51260;SDS011;61705;46.228;24.812;2022-09-27T05:20:22;19.58;;;7.28;;
51260;SDS011;61705;46.228;24.812;2022-09-27T05:22:55;20.98;;;8.13;;
51260;SDS011;61705;46.228;24.812;2022-09-27T05:25:22;18.85;;;7.75;;
51260;SDS011;61705;46.228;24.812;2022-09-27T05:27:56;24.98;;;9.80;;
51260;SDS011;61705;46.228;24.812;2022-09-27T05:30:40;24.33;;;7.57;;
51260;SDS011;61705;46.228;24.812;2022-09-27T05:33:16;31.42;;;9.85;;
51260;SDS011;61705;46.228;24.812;2022-09-27T05:35:56;32.50;;;9.57;;
51260;SDS011;61705;46.228;24.812;2022-09-27T05:38:30;23.98;;;7.93;;
51260;SDS011;61705;46.228;24.812;2022-09-27T05:41:11;12.18;;;5.40;;
51260;SDS011;61705;46.228;24.812;2022-09-27T05:43:42;18.77;;;6.93;;
51260;SDS011;61705;46.228;24.812;2022-09-27T05:46:09;17.55;;;6.45;;
51260;SDS011;61705;46.228;24.812;2022-09-27T05:48:43;15.55;;;7.05;;
51260;SDS011;61705;46.228;24.812;2022-09-27T05:51:12;31.90;;;9.30;;
51260;SDS011;61705;46.228;24.812;2022-09-27T05:53:40;32.15;;;9.18;;
51260;SDS011;61705;46.228;24.812;2022-09-27T05:56:07;26.52;;;8.18;;
51260;SDS011;61705;46.228;24.812;2022-09-27T05:58:33;22.65;;;7.07;;
51260;SDS011;61705;46.228;24.812;2022-09-27T06:01:00;20.25;;;6.93;;
51260;SDS011;61705;46.228;24.812;2022-09-27T06:03:27;19.13;;;7.15;;
51260;SDS011;61705;46.228;24.812;2022-09-27T06:05:55;34.58;;;10.82;;
51260;SDS011;61705;46.228;24.812;2022-09-27T06:08:22;27.50;;;9.82;;
51260;SDS011;61705;46.228;24.812;2022-09-27T06:11:02;18.25;;;6.72;;
51260;SDS011;61705;46.228;24.812;2022-09-27T06:13:38;37.85;;;7.95;;
51260;SDS011;61705;46.228;24.812;2022-09-27T06:16:06;23.23;;;7.28;;
51260;SDS011;61705;46.228;24.812;2022-09-27T06:18:41;34.53;;;8.93;;
51260;SDS011;61705;46.228;24.812;2022-09-27T06:21:09;24.75;;;7.13;;
51260;SDS011;61705;46.228;24.812;2022-09-27T06:23:39;12.05;;;5.82;;
51260;SDS011;61705;46.228;24.812;2022-09-27T06:26:06;21.60;;;7.50;;
51260;SDS011;61705;46.228;24.812;2022-09-27T06:28:42;35.00;;;9.85;;
51260;SDS011;61705;46.228;24.812;2022-09-27T06:31:12;29.92;;;12.57;;
51260;SDS011;61705;46.228;24.812;2022-09-27T06:33:39;27.40;;;7.15;;
51260;SDS011;61705;46.228;24.812;2022-09-27T06:36:06;15.95;;;4.82;;
51260;SDS011;61705;46.228;24.812;2022-09-27T06:38:33;14.43;;;4.95;;
51260;SDS011;61705;46.228;24.812;2022-09-27T06:41:01;12.63;;;4.10;;
51260;SDS011;61705;46.228;24.812;2022-09-27T06:43:29;22.05;;;5.57;;
51260;SDS011;61705;46.228;24.812;2022-09-27T06:45:58;15.40;;;5.07;;
51260;SDS011;61705;46.228;24.812;2022-09-27T06:48:31;17.45;;;5.57;;
51260;SDS011;61705;46.228;24.812;2022-09-27T06:50:58;12.13;;;6.32;;
51260;SDS011;61705;46.228;24.812;2022-09-27T06:53:25;11.75;;;5.18;;
51260;SDS011;61705;46.228;24.812;2022-09-27T06:55:52;22.40;;;6.97;;
51260;SDS011;61705;46.228;24.812;2022-09-27T06:58:23;16.73;;;5.80;;
51260;SDS011;61705;46.228;24.812;2022-09-27T07:01:10;20.60;;;6.30;;
51260;SDS011;61705;46.228;24.812;2022-09-27T07:03:37;14.50;;;5.95;;
51260;SDS011;61705;46.228;24.812;2022-09-27T07:06:16;33.70;;;15.10;;
51260;SDS011;61705;46.228;24.812;2022-09-27T07:08:49;18.75;;;6.88;;
51260;SDS011;61705;46.228;24.812;2022-09-27T07:11:17;42.47;;;9.25;;
51260;SDS011;61705;46.228;24.812;2022-09-27T07:13:45;19.10;;;7.00;;
51260;SDS011;61705;46.228;24.812;2022-09-27T07:16:15;29.42;;;9.10;;
51260;SDS011;61705;46.228;24.812;2022-09-27T07:18:42;29.38;;;7.30;;
51260;SDS011;61705;46.228;24.812;2022-09-27T07:21:19;19.48;;;6.30;;
51260;SDS011;61705;46.228;24.812;2022-09-27T07:23:49;12.20;;;5.00;;
51260;SDS011;61705;46.228;24.812;2022-09-27T07:26:18;14.25;;;4.40;;
51260;SDS011;61705;46.228;24.812;2022-09-27T07:28:47;15.90;;;4.95;;
51260;SDS011;61705;46.228;24.812;2022-09-27T07:31:17;11.27;;;4.25;;
51260;SDS011;61705;46.228;24.812;2022-09-27T07:33:44;28.92;;;7.90;;
51260;SDS011;61705;46.228;24.812;2022-09-27T07:36:17;15.98;;;5.43;;
51260;SDS011;61705;46.228;24.812;2022-09-27T07:38:44;43.58;;;11.25;;
51260;SDS011;61705;46.228;24.812;2022-09-27T07:41:11;11.18;;;4.82;;
51260;SDS011;61705;46.228;24.812;2022-09-27T07:43:44;21.00;;;5.43;;
51260;SDS011;61705;46.228;24.812;2022-09-27T07:46:11;11.65;;;4.18;;
51260;SDS011;61705;46.228;24.812;2022-09-27T07:48:40;25.70;;;5.63;;
51260;SDS011;61705;46.228;24.812;2022-09-27T07:51:11;9.23;;;3.72;;
51260;SDS011;61705;46.228;24.812;2022-09-27T07:53:41;14.95;;;4.35;;
51260;SDS011;61705;46.228;24.812;2022-09-27T07:56:12;17.70;;;6.85;;
51260;SDS011;61705;46.228;24.812;2022-09-27T07:58:39;14.63;;;3.97;;
51260;SDS011;61705;46.228;24.812;2022-09-27T08:01:13;11.25;;;4.05;;
51260;SDS011;61705;46.228;24.812;2022-09-27T08:03:40;6.68;;;3.72;;
51260;SDS011;61705;46.228;24.812;2022-09-27T08:06:07;15.45;;;6.22;;
51260;SDS011;61705;46.228;24.812;2022-09-27T08:08:35;7.75;;;3.83;;
51260;SDS011;61705;46.228;24.812;2022-09-27T08:11:11;7.22;;;3.63;;
51260;SDS011;61705;46.228;24.812;2022-09-27T08:13:41;8.00;;;3.40;;
51260;SDS011;61705;46.228;24.812;2022-09-27T08:16:08;9.70;;;3.50;;
51260;SDS011;61705;46.228;24.812;2022-09-27T08:18:39;16.58;;;4.82;;
51260;SDS011;61705;46.228;24.812;2022-09-27T08:21:06;13.10;;;4.32;;
51260;SDS011;61705;46.228;24.812;2022-09-27T08:23:33;14.30;;;4.35;;
51260;SDS011;61705;46.228;24.812;2022-09-27T08:26:02;15.85;;;4.13;;
51260;SDS011;61705;46.228;24.812;2022-09-27T08:28:29;22.90;;;4.82;;
51260;SDS011;61705;46.228;24.812;2022-09-27T08:31:01;12.52;;;4.65;;
51260;SDS011;61705;46.228;24.812;2022-09-27T08:33:28;11.88;;;4.00;;
51260;SDS011;61705;46.228;24.812;2022-09-27T08:36:09;10.95;;;3.60;;
51260;SDS011;61705;46.228;24.812;2022-09-27T08:38:37;20.63;;;5.82;;
51260;SDS011;61705;46.228;24.812;2022-09-27T08:55:04;16.00;;;4.45;;
51260;SDS011;61705;46.228;24.812;2022-09-27T08:57:52;12.68;;;4.45;;
51260;SDS011;61705;46.228;24.812;2022-09-27T09:00:22;24.65;;;7.03;;
51260;SDS011;61705;46.228;24.812;2022-09-27T09:02:51;27.40;;;6.60;;
51260;SDS011;61705;46.228;24.812;2022-09-27T09:05:22;22.30;;;4.95;;
51260;SDS011;61705;46.228;24.812;2022-09-27T14:29:50;25.65;;;4.05;;
51260;SDS011;61705;46.228;24.812;2022-09-27T14:32:24;6.07;;;3.00;;
51260;SDS011;61705;46.228;24.812;2022-09-27T14:35:15;19.45;;;5.00;;
51260;SDS011;61705;46.228;24.812;2022-09-27T14:38:18;8.63;;;3.50;;
51260;SDS011;61705;46.228;24.812;2022-09-27T14:41:04;11.90;;;3.90;;
51260;SDS011;61705;46.228;24.812;2022-09-27T14:43:35;19.27;;;4.45;;
51260;SDS011;61705;46.228;24.812;2022-09-27T14:46:31;18.33;;;4.15;;
51260;SDS011;61705;46.228;24.812;2022-09-27T15:05:44;19.90;;;6.78;;
51260;SDS011;61705;46.228;24.812;2022-09-27T15:08:30;9.15;;;4.70;;
51260;SDS011;61705;46.228;24.812;2022-09-27T15:11:25;17.13;;;5.00;;
51260;SDS011;61705;46.228;24.812;2022-09-27T15:14:15;23.52;;;5.93;;
51260;SDS011;61705;46.228;24.812;2022-09-27T15:17:02;17.75;;;5.45;;
51260;SDS011;61705;46.228;24.812;2022-09-27T15:24:02;15.43;;;4.15;;
51260;SDS011;61705;46.228;24.812;2022-09-27T17:00:23;21.33;;;5.60;;
51260;SDS011;61705;46.228;24.812;2022-09-27T17:02:51;9.40;;;4.10;;
51260;SDS011;61705;46.228;24.812;2022-09-27T17:39:43;16.10;;;5.32;;
51260;SDS011;61705;46.228;24.812;2022-09-27T17:42:10;11.13;;;4.00;;
51260;SDS011;61705;46.228;24.812;2022-09-27T17:44:38;14.07;;;5.05;;
51260;SDS011;61705;46.228;24.812;2022-09-27T17:47:05;13.75;;;5.72;;
51260;SDS011;61705;46.228;24.812;2022-09-27T17:49:50;14.50;;;8.23;;
51260;SDS011;61705;46.228;24.812;2022-09-27T17:52:42;21.85;;;8.68;;
51260;SDS011;61705;46.228;24.812;2022-09-27T17:55:14;28.02;;;11.85;;
51260;SDS011;61705;46.228;24.812;2022-09-27T17:57:45;10.07;;;5.38;;
51260;SDS011;61705;46.228;24.812;2022-09-27T18:00:20;20.52;;;6.68;;
51260;SDS011;61705;46.228;24.812;2022-09-27T18:03:01;19.42;;;5.68;;
51260;SDS011;61705;46.228;24.812;2022-09-27T18:05:28;27.60;;;7.28;;
51260;SDS011;61705;46.228;24.812;2022-09-27T18:07:55;10.77;;;3.83;;
51260;SDS011;61705;46.228;24.812;2022-09-27T18:10:24;15.93;;;3.83;;
51260;SDS011;61705;46.228;24.812;2022-09-27T18:12:53;12.02;;;4.72;;
51260;SDS011;61705;46.228;24.812;2022-09-27T18:15:33;20.27;;;5.63;;
51260;SDS011;61705;46.228;24.812;2022-09-27T18:18:06;16.70;;;5.22;;
51260;SDS011;61705;46.228;24.812;2022-09-27T18:20:34;17.42;;;4.78;;
51260;SDS011;61705;46.228;24.812;2022-09-27T18:23:01;12.52;;;5.10;;
51260;SDS011;61705;46.228;24.812;2022-09-27T18:25:44;12.35;;;5.72;;
51260;SDS011;61705;46.228;24.812;2022-09-27T18:28:30;22.70;;;6.35;;
51260;SDS011;61705;46.228;24.812;2022-09-27T18:31:14;15.45;;;4.75;;
51260;SDS011;61705;46.228;24.812;2022-09-27T18:33:50;16.83;;;5.50;;
51260;SDS011;61705;46.228;24.812;2022-09-27T18:36:36;22.00;;;6.30;;
51260;SDS011;61705;46.228;24.812;2022-09-27T18:39:42;22.45;;;7.15;;
51260;SDS011;61705;46.228;24.812;2022-09-27T18:42:22;22.05;;;8.65;;
51260;SDS011;61705;46.228;24.812;2022-09-27T18:45:05;22.58;;;11.60;;
51260;SDS011;61705;46.228;24.812;2022-09-27T18:47:33;12.95;;;6.80;;
51260;SDS011;61705;46.228;24.812;2022-09-27T18:50:14;14.90;;;6.75;;
51260;SDS011;61705;46.228;24.812;2022-09-27T18:52:55;19.33;;;5.55;;
51260;SDS011;61705;46.228;24.812;2022-09-27T18:55:25;9.52;;;4.57;;
51260;SDS011;61705;46.228;24.812;2022-09-27T18:57:53;18.58;;;5.25;;
51260;SDS011;61705;46.228;24.812;2022-09-27T19:00:21;16.02;;;5.35;;
51260;SDS011;61705;46.228;24.812;2022-09-27T19:02:48;16.08;;;5.20;;
51260;SDS011;61705;46.228;24.812;2022-09-27T19:05:15;9.38;;;5.05;;
51260;SDS011;61705;46.228;24.812;2022-09-27T19:07:56;24.65;;;7.15;;
51260;SDS011;61705;46.228;24.812;2022-09-27T19:10:24;14.45;;;5.85;;
51260;SDS011;61705;46.228;24.812;2022-09-27T19:12:55;20.02;;;7.47;;
51260;SDS011;61705;46.228;24.812;2022-09-27T19:15:27;18.13;;;8.13;;
51260;SDS011;61705;46.228;24.812;2022-09-27T19:17:54;12.98;;;6.22;;
51260;SDS011;61705;46.228;24.812;2022-09-27T19:20:27;10.40;;;5.72;;
51260;SDS011;61705;46.228;24.812;2022-09-27T19:23:04;13.07;;;5.40;;
51260;SDS011;61705;46.228;24.812;2022-09-27T19:25:39;16.55;;;6.45;;
51260;SDS011;61705;46.228;24.812;2022-09-27T19:28:25;12.18;;;6.30;;
51260;SDS011;61705;46.228;24.812;2022-09-27T19:31:02;18.02;;;7.72;;
51260;SDS011;61705;46.228;24.812;2022-09-27T19:33:59;17.67;;;9.98;;
51260;SDS011;61705;46.228;24.812;2022-09-27T19:36:29;18.85;;;9.48;;
51260;SDS011;61705;46.228;24.812;2022-09-27T19:39:11;20.83;;;11.48;;
51260;SDS011;61705;46.228;24.812;2022-09-27T19:41:39;23.13;;;10.65;;
51260;SDS011;61705;46.228;24.812;2022-09-27T19:44:06;17.92;;;9.52;;
51260;SDS011;61705;46.228;24.812;2022-09-27T19:46:36;28.38;;;12.50;;
51260;SDS011;61705;46.228;24.812;2022-09-27T19:49:10;28.90;;;15.65;;
51260;SDS011;61705;46.228;24.812;2022-09-27T19:51:44;29.02;;;16.25;;
51260;SDS011;61705;46.228;24.812;2022-09-27T19:54:15;22.20;;;12.40;;
51260;SDS011;61705;46.228;24.812;2022-09-27T20:01:18;13.93;;;8.13;;
51260;SDS011;61705;46.228;24.812;2022-09-27T20:03:51;19.80;;;9.30;;
51260;SDS011;61705;46.228;24.812;2022-09-27T20:06:40;20.33;;;11.85;;
51260;SDS011;61705;46.228;24.812;2022-09-27T20:09:09;16.48;;;9.10;;
51260;SDS011;61705;46.228;24.812;2022-09-27T20:12:07;16.80;;;9.68;;
51260;SDS011;61705;46.228;24.812;2022-09-27T20:14:44;19.35;;;10.52;;
51260;SDS011;61705;46.228;24.812;2022-09-27T20:17:11;18.35;;;9.38;;
51260;SDS011;61705;46.228;24.812;2022-09-27T20:19:41;17.75;;;8.90;;
51260;SDS011;61705;46.228;24.812;2022-09-27T20:22:13;16.92;;;9.80;;
51260;SDS011;61705;46.228;24.812;2022-09-27T20:24:41;19.23;;;8.40;;
51260;SDS011;61705;46.228;24.812;2022-09-27T20:27:15;14.75;;;8.73;;
51260;SDS011;61705;46.228;24.812;2022-09-27T20:29:43;15.48;;;8.57;;
51260;SDS011;61705;46.228;24.812;2022-09-27T20:32:10;16.02;;;9.07;;
51260;SDS011;61705;46.228;24.812;2022-09-27T20:34:54;20.42;;;10.07;;
51260;SDS011;61705;46.228;24.812;2022-09-27T20:37:38;18.10;;;9.73;;
51260;SDS011;61705;46.228;24.812;2022-09-27T20:40:10;21.17;;;9.90;;
51260;SDS011;61705;46.228;24.812;2022-09-27T20:42:40;14.43;;;8.80;;
51260;SDS011;61705;46.228;24.812;2022-09-27T20:45:13;15.52;;;8.55;;
51260;SDS011;61705;46.228;24.812;2022-09-27T20:47:42;16.10;;;8.80;;
51260;SDS011;61705;46.228;24.812;2022-09-27T21:01:20;14.05;;;8.02;;
51260;SDS011;61705;46.228;24.812;2022-09-27T21:04:15;17.65;;;8.65;;
51260;SDS011;61705;46.228;24.812;2022-09-27T21:06:50;17.20;;;9.05;;
51260;SDS011;61705;46.228;24.812;2022-09-27T21:09:17;14.75;;;8.10;;
51260;SDS011;61705;46.228;24.812;2022-09-27T21:11:46;20.42;;;9.50;;
51260;SDS011;61705;46.228;24.812;2022-09-27T21:14:14;15.93;;;8.55;;
51260;SDS011;61705;46.228;24.812;2022-09-27T21:16:44;14.30;;;7.95;;
51260;SDS011;61705;46.228;24.812;2022-09-27T21:19:11;16.23;;;9.13;;
51260;SDS011;61705;46.228;24.812;2022-09-27T21:21:38;16.63;;;9.60;;
51260;SDS011;61705;46.228;24.812;2022-09-27T21:24:05;18.92;;;10.25;;
51260;SDS011;61705;46.228;24.812;2022-09-27T21:26:35;23.85;;;11.93;;
51260;SDS011;61705;46.228;24.812;2022-09-27T21:29:06;23.67;;;11.20;;
51260;SDS011;61705;46.228;24.812;2022-09-27T21:31:34;21.50;;;12.20;;
51260;SDS011;61705;46.228;24.812;2022-09-27T21:34:04;20.83;;;11.32;;
51260;SDS011;61705;46.228;24.812;2022-09-27T21:36:34;23.65;;;11.02;;
51260;SDS011;61705;46.228;24.812;2022-09-27T21:39:05;10.77;;;5.40;;
51260;SDS011;61705;46.228;24.812;2022-09-27T21:41:34;14.80;;;6.63;;
51260;SDS011;61705;46.228;24.812;2022-09-27T21:44:01;9.70;;;5.97;;
51260;SDS011;61705;46.228;24.812;2022-09-27T21:46:31;7.57;;;4.32;;
51260;SDS011;61705;46.228;24.812;2022-09-27T21:48:58;9.48;;;4.72;;
51260;SDS011;61705;46.228;24.812;2022-09-27T21:51:31;8.13;;;4.78;;
51260;SDS011;61705;46.228;24.812;2022-09-27T21:54:02;9.48;;;4.82;;
51260;SDS011;61705;46.228;24.812;2022-09-27T21:56:31;9.05;;;4.47;;
51260;SDS011;61705;46.228;24.812;2022-09-27T21:59:03;7.65;;;3.95;;
51260;SDS011;61705;46.228;24.812;2022-09-27T22:01:31;9.23;;;4.93;;
51260;SDS011;61705;46.228;24.812;2022-09-27T22:03:59;10.43;;;6.13;;
51260;SDS011;61705;46.228;24.812;2022-09-27T22:06:32;15.52;;;8.77;;
51260;SDS011;61705;46.228;24.812;2022-09-27T22:09:02;15.55;;;8.98;;
51260;SDS011;61705;46.228;24.812;2022-09-27T22:11:36;17.02;;;9.43;;
51260;SDS011;61705;46.228;24.812;2022-09-27T22:14:04;18.13;;;9.15;;
51260;SDS011;61705;46.228;24.812;2022-09-27T22:16:34;27.42;;;15.48;;
51260;SDS011;61705;46.228;24.812;2022-09-27T22:19:00;30.45;;;14.20;;
51260;SDS011;61705;46.228;24.812;2022-09-27T22:21:28;27.30;;;14.13;;
51260;SDS011;61705;46.228;24.812;2022-09-27T22:23:57;20.75;;;10.07;;
51260;SDS011;61705;46.228;24.812;2022-09-27T22:26:32;11.93;;;7.10;;
51260;SDS011;61705;46.228;24.812;2022-09-27T22:29:00;7.35;;;4.05;;
51260;SDS011;61705;46.228;24.812;2022-09-27T22:31:30;6.57;;;3.33;;
51260;SDS011;61705;46.228;24.812;2022-09-27T22:33:59;4.88;;;2.70;;
51260;SDS011;61705;46.228;24.812;2022-09-27T22:36:27;7.20;;;3.28;;
51260;SDS011;61705;46.228;24.812;2022-09-27T22:38:57;5.53;;;2.70;;
51260;SDS011;61705;46.228;24.812;2022-09-27T22:41:24;5.35;;;2.63;;
51260;SDS011;61705;46.228;24.812;2022-09-27T22:43:51;6.63;;;3.42;;
51260;SDS011;61705;46.228;24.812;2022-09-27T22:46:18;5.13;;;2.28;;
51260;SDS011;61705;46.228;24.812;2022-09-27T22:48:46;4.00;;;2.20;;
51260;SDS011;61705;46.228;24.812;2022-09-27T22:51:14;4.53;;;2.50;;
51260;SDS011;61705;46.228;24.812;2022-09-27T22:53:50;4.25;;;2.25;;
51260;SDS011;61705;46.228;24.812;2022-09-27T22:56:17;3.95;;;2.40;;
51260;SDS011;61705;46.228;24.812;2022-09-27T22:58:58;6.30;;;2.63;;
51260;SDS011;61705;46.228;24.812;2022-09-27T23:01:37;4.95;;;2.30;;
51260;SDS011;61705;46.228;24.812;2022-09-27T23:04:08;7.00;;;2.60;;
51260;SDS011;61705;46.228;24.812;2022-09-27T23:06:55;6.32;;;2.47;;
51260;SDS011;61705;46.228;24.812;2022-09-27T23:09:34;4.78;;;2.28;;
51260;SDS011;61705;46.228;24.812;2022-09-27T23:12:01;5.15;;;2.35;;
51260;SDS011;61705;46.228;24.812;2022-09-27T23:14:31;5.30;;;2.40;;
51260;SDS011;61705;46.228;24.812;2022-09-27T23:16:58;6.20;;;2.70;;
51260;SDS011;61705;46.228;24.812;2022-09-27T23:19:31;4.82;;;2.40;;
51260;SDS011;61705;46.228;24.812;2022-09-27T23:22:02;4.38;;;2.00;;
51260;SDS011;61705;46.228;24.812;2022-09-27T23:24:29;5.72;;;2.13;;
51260;SDS011;61705;46.228;24.812;2022-09-27T23:26:56;10.15;;;3.35;;
51260;SDS011;61705;46.228;24.812;2022-09-27T23:29:43;4.97;;;2.00;;
51260;SDS011;61705;46.228;24.812;2022-09-27T23:32:11;3.50;;;2.08;;
51260;SDS011;61705;46.228;24.812;2022-09-27T23:34:43;5.78;;;2.20;;
51260;SDS011;61705;46.228;24.812;2022-09-27T23:37:13;5.40;;;2.10;;
51260;SDS011;61705;46.228;24.812;2022-09-27T23:42:23;5.85;;;2.30;;
51260;SDS011;61705;46.228;24.812;2022-09-27T23:44:50;6.28;;;2.25;;
51260;SDS011;61705;46.228;24.812;2022-09-27T23:47:24;6.13;;;2.35;;
51260;SDS011;61705;46.228;24.812;2022-09-27T23:50:16;4.13;;;2.30;;
51260;SDS011;61705;46.228;24.812;2022-09-27T23:53:46;3.80;;;2.15;;
51260;SDS011;61705;46.228;24.812;2022-09-27T23:56:27;10.90;;;2.20;;
51260;SDS011;61705;46.228;24.812;2022-09-27T23:59:03;4.70;;;2.30;;
